createdAt,value
2022-12-14T00:00:48.103Z,94164.28
2022-12-14T00:03:15.932Z,94142.81
2022-12-14T00:05:43.204Z,94129.00
2022-12-14T00:08:11.052Z,94120.00
2022-12-14T00:10:38.825Z,94102.75
2022-12-14T00:13:06.604Z,94086.31
2022-12-14T00:15:33.424Z,94068.25
2022-12-14T00:18:00.094Z,94079.97
2022-12-14T00:20:26.656Z,94095.88
2022-12-14T00:22:55.069Z,94093.50
2022-12-14T00:25:22.461Z,94093.50
2022-12-14T00:27:48.974Z,94102.50
2022-12-14T00:30:19.103Z,94110.72
2022-12-14T00:32:46.378Z,94116.84
2022-12-14T00:35:16.247Z,94105.41
2022-12-14T00:37:43.622Z,94104.88
2022-12-14T00:40:15.400Z,94111.00
2022-12-14T00:42:42.069Z,94118.69
2022-12-14T00:45:08.965Z,94121.91
2022-12-14T00:47:40.504Z,94121.38
2022-12-14T00:50:08.009Z,94110.25
2022-12-14T00:52:34.411Z,94117.94
2022-12-14T00:55:00.888Z,94122.47
2022-12-14T00:57:29.094Z,94133.63
2022-12-14T00:59:55.662Z,94139.97
2022-12-14T01:02:22.266Z,94137.63
2022-12-14T01:04:48.816Z,94138.94
2022-12-14T01:07:15.366Z,94129.91
2022-12-14T01:09:41.833Z,94129.41
2022-12-14T01:12:08.416Z,94115.88
2022-12-14T01:14:34.958Z,94115.34
2022-12-14T01:17:01.460Z,94122.78
2022-12-14T01:19:28.000Z,94128.63
2022-12-14T01:21:54.538Z,94130.75
2022-12-14T01:24:21.146Z,94131.28
2022-12-14T01:26:47.980Z,94127.78
2022-12-14T01:29:14.471Z,94120.38
2022-12-14T01:31:41.033Z,94117.72
2022-12-14T01:34:07.843Z,94114.00
2022-12-14T01:36:35.900Z,94116.13
2022-12-14T01:39:06.681Z,94106.59
2022-12-14T01:41:39.056Z,94103.66
2022-12-14T01:44:08.454Z,94114.56
2022-12-14T01:46:40.698Z,94112.94
2022-12-14T01:49:25.601Z,94111.91
2022-12-14T01:52:06.984Z,94111.63
2022-12-14T01:54:35.631Z,94107.94
2022-12-14T01:57:02.308Z,94103.41
2022-12-14T01:59:36.386Z,94115.06
2022-12-14T02:02:06.723Z,94105.53
2022-12-14T02:04:42.216Z,94110.03
2022-12-14T02:07:10.039Z,94116.16
2022-12-14T02:09:40.320Z,94104.44
2022-12-14T02:12:09.595Z,94103.41
2022-12-14T02:14:36.478Z,94102.88
2022-12-14T02:17:03.483Z,94088.78
2022-12-14T02:19:30.333Z,94105.78
2022-12-14T02:22:43.616Z,94118.56
2022-12-14T02:25:28.395Z,94113.50
2022-12-14T02:28:21.544Z,94101.78
2022-12-14T02:30:56.178Z,94083.75
2022-12-14T02:33:47.481Z,94097.81
2022-12-14T02:36:28.414Z,94106.84
2022-12-14T02:39:04.171Z,94105.53
2022-12-14T02:41:37.739Z,94081.09
2022-12-14T02:44:25.407Z,94080.84
2022-12-14T02:47:02.244Z,94081.63
2022-12-14T02:49:57.057Z,94057.19
2022-12-14T02:53:22.454Z,94057.72
2022-12-14T02:55:51.538Z,94059.31
2022-12-14T02:58:26.441Z,94068.06
2022-12-14T03:00:55.609Z,94080.81
2022-12-14T03:03:22.221Z,94069.91
2022-12-14T03:05:56.078Z,94057.19
2022-12-14T03:08:23.953Z,94049.75
2022-12-14T03:10:56.088Z,94034.31
2022-12-14T03:13:40.876Z,94042.28
2022-12-14T03:16:13.272Z,94030.88
2022-12-14T03:18:49.150Z,94029.00
2022-12-14T03:21:18.944Z,94024.22
2022-12-14T03:23:46.655Z,94022.38
2022-12-14T03:26:42.837Z,94018.66
2022-12-14T03:29:20.604Z,94020.22
2022-12-14T03:31:55.851Z,94030.59
2022-12-14T03:34:31.837Z,94017.84
2022-12-14T03:37:08.721Z,94010.94
2022-12-14T03:39:37.135Z,94017.06
2022-12-14T03:42:15.341Z,94020.25
2022-12-14T03:45:06.731Z,94026.34
2022-12-14T03:47:33.279Z,94014.69
2022-12-14T03:50:19.140Z,94016.00
2022-12-14T03:52:55.850Z,94017.06
2022-12-14T03:55:31.875Z,94018.66
2022-12-14T03:58:04.374Z,94019.16
2022-12-14T04:00:36.941Z,94012.81
2022-12-14T04:03:27.550Z,94024.78
2022-12-14T04:06:03.247Z,94027.94
2022-12-14T04:08:38.687Z,94026.06
2022-12-14T04:11:07.830Z,94029.28
2022-12-14T04:13:41.843Z,94025.53
2022-12-14T04:16:15.418Z,94022.88
2022-12-14T04:18:45.691Z,94025.00
2022-12-14T04:21:19.843Z,94025.78
2022-12-14T04:23:51.800Z,94026.88
2022-12-14T04:26:23.838Z,94023.94
2022-12-14T04:28:59.953Z,94009.59
2022-12-14T04:31:30.825Z,94006.66
2022-12-14T04:34:02.972Z,94005.31
2022-12-14T04:36:45.443Z,93990.44
2022-12-14T04:39:20.234Z,93984.88
2022-12-14T04:41:50.974Z,93976.31
2022-12-14T04:44:26.914Z,93971.56
2022-12-14T04:46:54.981Z,93965.16
2022-12-14T04:49:39.831Z,93959.31
2022-12-14T04:52:12.403Z,93951.63
2022-12-14T04:54:46.902Z,93942.34
2022-12-14T04:57:46.223Z,93955.09
2022-12-14T05:00:13.294Z,93957.47
2022-12-14T05:03:21.911Z,93966.53
2022-12-14T05:05:48.345Z,93969.69
2022-12-14T05:08:22.227Z,93969.69
2022-12-14T05:11:30.233Z,93960.66
2022-12-14T05:13:50.510Z,93954.00
2022-12-14T05:16:19.942Z,93952.13
2022-12-14T05:18:46.811Z,93956.63
2022-12-14T05:21:13.510Z,93958.50
2022-12-14T05:23:40.074Z,93951.31
2022-12-14T05:26:06.754Z,93960.91
2022-12-14T05:28:33.299Z,93948.38
2022-12-14T05:30:59.871Z,93949.72
2022-12-14T05:33:27.010Z,93946.53
2022-12-14T05:35:53.714Z,93948.13
2022-12-14T05:38:20.144Z,93931.09
2022-12-14T05:40:46.667Z,93931.91
2022-12-14T05:43:13.302Z,93936.13
2022-12-14T05:45:39.831Z,93942.53
2022-12-14T05:48:06.518Z,93938.78
2022-12-14T05:50:33.027Z,93924.72
2022-12-14T05:53:00.081Z,93932.69
2022-12-14T05:55:26.542Z,93931.91
2022-12-14T05:57:53.129Z,93924.19
2022-12-14T06:00:19.805Z,93922.59
2022-12-14T06:02:46.443Z,93916.75
2022-12-14T06:05:13.119Z,93921.25
2022-12-14T06:07:39.738Z,93917.81
2022-12-14T06:10:06.761Z,93917.03
2022-12-14T06:12:33.248Z,93908.25
2022-12-14T06:14:59.749Z,93914.38
2022-12-14T06:17:26.226Z,93911.72
2022-12-14T06:19:52.860Z,93909.84
2022-12-14T06:22:20.635Z,93908.78
2022-12-14T06:24:47.197Z,93902.38
2022-12-14T06:27:13.765Z,93903.97
2022-12-14T06:29:40.268Z,93908.50
2022-12-14T06:32:06.825Z,93903.72
2022-12-14T06:34:38.452Z,93899.69
2022-12-14T06:37:05.765Z,93905.00
2022-12-14T06:39:32.358Z,93899.69
2022-12-14T06:41:58.856Z,93895.19
2022-12-14T06:44:25.582Z,93886.69
2022-12-14T06:46:52.166Z,93880.56
2022-12-14T06:49:18.778Z,93880.84
2022-12-14T06:51:45.508Z,93881.09
2022-12-14T06:54:12.660Z,93881.66
2022-12-14T06:56:39.790Z,93875.00
2022-12-14T06:59:06.384Z,93873.41
2022-12-14T07:01:33.059Z,93872.34
2022-12-14T07:03:59.797Z,93862.00
2022-12-14T07:06:31.834Z,93866.25
2022-12-14T07:09:00.084Z,93867.53
2022-12-14T07:11:28.193Z,93859.28
2022-12-14T07:13:55.608Z,93857.16
2022-12-14T07:16:25.123Z,93859.53
2022-12-14T07:18:53.575Z,93852.38
2022-12-14T07:21:20.968Z,93859.25
2022-12-14T07:23:49.246Z,93858.97
2022-12-14T07:26:20.289Z,93853.38
2022-12-14T07:28:47.165Z,93857.66
2022-12-14T07:31:20.194Z,93850.19
2022-12-14T07:33:46.878Z,93846.47
2022-12-14T07:36:16.196Z,93856.03
2022-12-14T07:38:44.513Z,93844.84
2022-12-14T07:41:22.357Z,93837.66
2022-12-14T07:43:54.778Z,93841.09
2022-12-14T07:46:24.427Z,93831.78
2022-12-14T07:48:53.788Z,93829.66
2022-12-14T07:51:23.201Z,93843.44
2022-12-14T07:53:50.711Z,93836.56
2022-12-14T07:56:23.208Z,93841.59
2022-12-14T07:58:49.772Z,93834.13
2022-12-14T08:01:16.331Z,93833.59
2022-12-14T08:03:48.534Z,93830.94
2022-12-14T08:06:16.235Z,93827.44
2022-12-14T08:08:42.848Z,93818.09
2022-12-14T08:11:09.892Z,93820.47
2022-12-14T08:13:37.510Z,93825.44
2022-12-14T08:16:06.339Z,93826.47
2022-12-14T08:18:33.002Z,93809.16
2022-12-14T08:21:00.302Z,93816.31
2022-12-14T08:23:27.521Z,93814.69
2022-12-14T08:25:55.925Z,93801.34
2022-12-14T08:28:23.393Z,93795.94
2022-12-14T08:30:50.717Z,93793.22
2022-12-14T08:33:17.991Z,93792.91
2022-12-14T08:35:44.522Z,93784.06
2022-12-14T08:38:11.121Z,93773.38
2022-12-14T08:40:39.112Z,93773.03
2022-12-14T08:43:06.371Z,93760.78
2022-12-14T08:45:33.450Z,93769.47
2022-12-14T08:48:00.438Z,93761.91
2022-12-14T08:50:27.672Z,93772.53
2022-12-14T08:52:54.278Z,93767.63
2022-12-14T08:55:28.280Z,93764.91
2022-12-14T08:57:56.898Z,93767.25
2022-12-14T09:00:23.479Z,93777.56
2022-12-14T09:02:50.998Z,93775.38
2022-12-14T09:05:17.652Z,93779.06
2022-12-14T09:07:44.130Z,93770.44
2022-12-14T09:10:11.005Z,93768.47
2022-12-14T09:12:37.601Z,93762.81
2022-12-14T09:15:04.301Z,93762.16
2022-12-14T09:17:30.799Z,93747.69
2022-12-14T09:19:57.280Z,93735.84
2022-12-14T09:22:24.514Z,93737.03
2022-12-14T09:24:51.245Z,93740.94
2022-12-14T09:27:18.317Z,93737.53
2022-12-14T09:29:44.852Z,93732.31
2022-12-14T09:32:11.407Z,93730.06
2022-12-14T09:34:38.165Z,93725.38
2022-12-14T09:37:04.933Z,93730.03
2022-12-14T09:39:31.835Z,93735.47
2022-12-14T09:42:27.197Z,93730.31
2022-12-14T09:45:18.233Z,93723.81
2022-12-14T09:47:56.719Z,93717.09
2022-12-14T09:50:23.926Z,93713.81
2022-12-14T09:53:00.412Z,93710.38
2022-12-14T09:55:47.558Z,93704.44
2022-12-14T09:58:28.661Z,93697.50
2022-12-14T10:01:20.254Z,93689.78
2022-12-14T10:04:20.117Z,93682.66
2022-12-14T10:07:00.084Z,93682.97
2022-12-14T10:09:51.235Z,93668.81
2022-12-14T10:12:34.075Z,93665.03
2022-12-14T10:15:09.733Z,93656.75
2022-12-14T10:21:20.391Z,93647.34
2022-12-14T10:23:57.906Z,93643.31
2022-12-14T10:26:33.634Z,93630.13
2022-12-14T10:29:13.171Z,93626.88
2022-12-14T10:32:03.356Z,93627.06
2022-12-14T10:34:31.790Z,93616.56
2022-12-14T10:37:24.833Z,93617.56
2022-12-14T10:40:11.575Z,93613.78
2022-12-14T10:43:13.195Z,93626.53
2022-12-14T10:46:00.902Z,93609.13
2022-12-14T10:48:48.541Z,93622.31
2022-12-14T10:51:39.053Z,93612.59
2022-12-14T10:54:14.663Z,93613.09
2022-12-14T10:56:43.278Z,93615.16
2022-12-14T10:59:19.661Z,93602.28
2022-12-14T11:01:48.715Z,93603.25
2022-12-14T11:04:27.412Z,93601.88
2022-12-14T11:06:53.889Z,93592.34
2022-12-14T11:09:22.913Z,93603.53
2022-12-14T11:11:57.348Z,93591.31
2022-12-14T11:14:24.597Z,93594.38
2022-12-14T11:16:51.101Z,93597.41
2022-12-14T11:19:23.866Z,93598.56
2022-12-14T11:22:04.659Z,93589.81
2022-12-14T11:24:31.167Z,93603.06
2022-12-14T11:27:04.154Z,93609.41
2022-12-14T11:29:34.730Z,93608.78
2022-12-14T11:32:01.825Z,93598.09
2022-12-14T11:34:33.811Z,93576.09
2022-12-14T11:37:21.900Z,93586.59
2022-12-14T11:39:54.966Z,93579.38
2022-12-14T11:42:22.339Z,93578.28
2022-12-14T11:44:50.249Z,93571.66
2022-12-14T11:47:19.857Z,93567.59
2022-12-14T11:49:50.082Z,93557.19
2022-12-14T11:52:26.865Z,93555.75
2022-12-14T11:54:54.214Z,93550.91
2022-12-14T11:57:55.041Z,93541.31
2022-12-14T12:00:27.558Z,93523.53
2022-12-14T12:03:30.718Z,93536.59
2022-12-14T12:06:04.799Z,93530.03
2022-12-14T12:08:34.877Z,93523.13
2022-12-14T12:11:04.911Z,93520.81
2022-12-14T12:13:43.462Z,93520.69
2022-12-14T12:16:09.933Z,93521.16
2022-12-14T12:18:46.447Z,93537.69
2022-12-14T12:21:27.371Z,93562.28
2022-12-14T12:24:07.208Z,93571.88
2022-12-14T12:26:37.939Z,93563.53
2022-12-14T12:29:23.315Z,93576.91
2022-12-14T12:32:00.498Z,93577.72
2022-12-14T12:34:44.121Z,93553.63
2022-12-14T12:37:27.033Z,93538.03
2022-12-14T12:40:02.046Z,93534.28
2022-12-14T12:42:45.106Z,93527.31
2022-12-14T12:45:17.123Z,93532.06
2022-12-14T12:47:50.704Z,93531.75
2022-12-14T12:50:22.878Z,93529.56
2022-12-14T12:53:13.116Z,93546.44
2022-12-14T12:55:48.806Z,93546.59
2022-12-14T12:58:22.406Z,93537.94
2022-12-14T13:00:53.110Z,93528.00
2022-12-14T13:03:27.073Z,93533.84
2022-12-14T13:05:57.519Z,93535.41
2022-12-14T13:08:28.824Z,93514.78
2022-12-14T13:13:51.554Z,93514.97
2022-12-14T13:16:28.099Z,93523.16
2022-12-14T13:19:32.523Z,93526.63
2022-12-14T13:21:55.082Z,93538.31
2022-12-14T13:24:23.853Z,93534.19
2022-12-14T13:27:21.271Z,93548.41
2022-12-14T13:30:24.330Z,93536.56
2022-12-14T13:33:18.851Z,93557.38
2022-12-14T13:35:58.668Z,93527.13
2022-12-14T13:38:40.747Z,93541.78
2022-12-14T13:41:27.637Z,93538.81
2022-12-14T13:44:18.761Z,93544.16
2022-12-14T13:46:45.959Z,93546.53
2022-12-14T13:49:22.163Z,93568.28
2022-12-14T13:51:50.467Z,93582.44
2022-12-14T13:54:32.701Z,93581.66
2022-12-14T13:57:15.206Z,93591.25
2022-12-14T13:59:49.054Z,93592.38
2022-12-14T14:02:35.936Z,93605.47
2022-12-14T14:05:14.827Z,93614.59
2022-12-14T14:07:56.877Z,93613.63
2022-12-14T14:10:38.884Z,93612.69
2022-12-14T14:13:27.400Z,93606.19
2022-12-14T14:16:26.939Z,93601.47
2022-12-14T14:18:53.848Z,93605.56
2022-12-14T14:21:20.341Z,93600.50
2022-12-14T14:24:12.828Z,93597.38
2022-12-14T14:26:56.933Z,93601.13
2022-12-14T14:29:30.838Z,93601.13
2022-12-14T14:32:02.571Z,93606.19
2022-12-14T14:34:45.150Z,93596.25
2022-12-14T14:37:20.660Z,93580.19
2022-12-14T14:40:10.163Z,93579.88
2022-12-14T14:42:55.584Z,93574.81
2022-12-14T14:45:30.200Z,93593.25
2022-12-14T14:48:00.334Z,93595.63
2022-12-14T14:50:31.470Z,93575.00
2022-12-14T14:53:01.594Z,93582.72
2022-12-14T14:58:33.983Z,93592.66
2022-12-14T15:01:06.651Z,93595.00
2022-12-14T15:04:00.495Z,93605.25
2022-12-14T15:06:32.778Z,93614.84
2022-12-14T15:09:09.797Z,93626.38
2022-12-14T15:11:45.836Z,93620.22
2022-12-14T15:14:46.747Z,93624.00
2022-12-14T15:17:22.102Z,93612.97
2022-12-14T15:19:53.798Z,93613.47
2022-12-14T15:22:26.820Z,93620.72
2022-12-14T15:24:56.356Z,93626.84
2022-12-14T15:27:28.075Z,93625.44
2022-12-14T15:30:16.815Z,93628.13
2022-12-14T15:32:52.210Z,93618.97
2022-12-14T15:35:24.392Z,93613.00
2022-12-14T15:37:59.732Z,93598.22
2022-12-14T15:40:29.414Z,93599.47
2022-12-14T15:42:59.943Z,93606.41
2022-12-14T15:45:42.653Z,93608.00
2022-12-14T15:48:21.405Z,93621.09
2022-12-14T15:50:52.754Z,93616.50
2022-12-14T15:53:27.187Z,93623.44
2022-12-14T15:56:01.011Z,93617.47
2022-12-14T15:58:32.023Z,93632.94
2022-12-14T16:01:23.675Z,93623.31
2022-12-14T16:03:53.831Z,93648.41
2022-12-14T16:06:21.558Z,93645.38
2022-12-14T16:08:59.322Z,93647.75
2022-12-14T16:11:36.344Z,93647.13
2022-12-14T16:14:14.418Z,93645.72
2022-12-14T16:16:41.051Z,93653.28
2022-12-14T16:19:26.044Z,93650.63
2022-12-14T16:22:08.833Z,93653.78
2022-12-14T16:24:37.045Z,93657.44
2022-12-14T16:27:04.568Z,93656.50
2022-12-14T16:29:33.426Z,93658.88
2022-12-14T16:32:06.674Z,93663.59
2022-12-14T16:34:33.916Z,93669.91
2022-12-14T16:39:50.922Z,93677.81
2022-12-14T16:42:22.678Z,93679.88
2022-12-14T16:44:50.010Z,93688.88
2022-12-14T16:47:34.979Z,93690.16
2022-12-14T16:50:01.679Z,93699.63
2022-12-14T16:52:29.850Z,93697.41
2022-12-14T16:55:05.427Z,93691.41
2022-12-14T16:57:32.283Z,93702.31
2022-12-14T17:00:05.282Z,93703.72
2022-12-14T17:02:35.709Z,93716.66
2022-12-14T17:05:17.293Z,93708.16
2022-12-14T17:07:46.782Z,93724.22
2022-12-14T17:10:22.196Z,93720.75
2022-12-14T17:12:49.248Z,93723.44
2022-12-14T17:15:19.871Z,93725.00
2022-12-14T17:17:49.976Z,93732.75
2022-12-14T17:20:28.997Z,93720.44
2022-12-14T17:22:57.550Z,93731.31
2022-12-14T17:25:26.434Z,93729.75
2022-12-14T17:27:53.315Z,93743.63
2022-12-14T17:30:22.463Z,93747.91
2022-12-14T17:32:50.249Z,93747.59
2022-12-14T17:35:19.194Z,93755.66
2022-12-14T17:37:46.045Z,93757.22
2022-12-14T17:40:12.980Z,93766.38
2022-12-14T17:42:41.268Z,93771.75
2022-12-14T17:45:22.248Z,93777.41
2022-12-14T17:47:49.279Z,93778.19
2022-12-14T17:50:17.488Z,93781.19
2022-12-14T17:52:44.459Z,93777.06
2022-12-14T17:55:21.729Z,93780.72
2022-12-14T17:57:48.813Z,93781.97
2022-12-14T18:00:21.739Z,93780.09
2022-12-14T18:02:48.398Z,93784.34
2022-12-14T18:05:21.441Z,93791.59
2022-12-14T18:07:49.876Z,93800.94
2022-12-14T18:10:17.146Z,93799.03
2022-12-14T18:12:44.363Z,93800.13
2022-12-14T18:15:16.953Z,93798.25
2022-12-14T18:17:43.444Z,93800.94
2022-12-14T18:20:11.443Z,93799.03
2022-12-14T18:22:37.905Z,93800.63
2022-12-14T18:25:25.766Z,93802.19
2022-12-14T18:27:55.194Z,93810.38
2022-12-14T18:30:22.228Z,93811.53
2022-12-14T18:32:48.723Z,93811.22
2022-12-14T18:35:18.110Z,93823.19
2022-12-14T18:37:44.730Z,93822.88
2022-12-14T18:40:19.197Z,93827.16
2022-12-14T18:42:46.472Z,93827.47
2022-12-14T18:45:16.641Z,93828.56
2022-12-14T18:47:44.466Z,93838.50
2022-12-14T18:50:11.426Z,93837.69
2022-12-14T18:52:38.305Z,93846.69
2022-12-14T18:55:35.387Z,93855.53
2022-12-14T18:58:02.912Z,93859.63
2022-12-14T19:00:32.150Z,93871.75
2022-12-14T19:03:00.409Z,93861.81
2022-12-14T19:05:28.027Z,93860.72
2022-12-14T19:07:57.027Z,93873.66
2022-12-14T19:10:26.891Z,93868.91
2022-12-14T19:12:53.949Z,93876.78
2022-12-14T19:15:26.424Z,93877.09
2022-12-14T19:17:53.383Z,93875.81
2022-12-14T19:20:20.750Z,93878.81
2022-12-14T19:22:47.391Z,93882.09
2022-12-14T19:25:14.481Z,93877.81
2022-12-14T19:30:27.545Z,93874.00
2022-12-14T19:32:56.090Z,93880.47
2022-12-14T19:35:24.102Z,93881.38
2022-12-14T19:37:51.615Z,93888.25
2022-12-14T19:40:19.353Z,93888.09
2022-12-14T19:42:45.854Z,93896.44
2022-12-14T19:45:13.330Z,93896.44
2022-12-14T19:47:39.875Z,93905.09
2022-12-14T19:50:07.427Z,93906.78
2022-12-14T19:52:34.541Z,93897.47
2022-12-14T19:55:01.906Z,93890.53
2022-12-14T19:57:28.646Z,93885.94
2022-12-14T19:59:55.294Z,93898.25
2022-12-14T20:02:22.107Z,93905.53
2022-12-14T20:04:48.734Z,93896.06
2022-12-14T20:07:15.165Z,93901.41
2022-12-14T20:09:41.755Z,93906.00
2022-12-14T20:12:08.298Z,93901.72
2022-12-14T20:14:34.732Z,93906.59
2022-12-14T20:17:01.299Z,93917.31
2022-12-14T20:19:27.885Z,93922.69
2022-12-14T20:21:54.435Z,93936.69
2022-12-14T20:24:20.908Z,93928.66
2022-12-14T20:26:47.361Z,93927.09
2022-12-14T20:29:15.971Z,93934.00
2022-12-14T20:31:42.570Z,93930.06
2022-12-14T20:34:09.795Z,93939.38
2022-12-14T20:36:36.290Z,93935.44
2022-12-14T20:39:04.373Z,93938.09
2022-12-14T20:41:31.373Z,93926.22
2022-12-14T20:43:59.286Z,93926.41
2022-12-14T20:46:28.998Z,93934.44
2022-12-14T20:48:56.584Z,93930.38
2022-12-14T20:51:23.673Z,93928.28
2022-12-14T20:53:50.404Z,93935.22
2022-12-14T20:56:16.887Z,93944.06
2022-12-14T20:58:47.870Z,93932.06
2022-12-14T21:01:15.939Z,93940.56
2022-12-14T21:03:42.523Z,93941.00
2022-12-14T21:06:09.197Z,93945.44
2022-12-14T21:08:35.818Z,93947.34
2022-12-14T21:11:03.538Z,93943.84
2022-12-14T21:13:30.566Z,93948.44
2022-12-14T21:15:57.365Z,93956.00
2022-12-14T21:18:23.947Z,93954.09
2022-12-14T21:20:50.421Z,93955.69
2022-12-14T21:23:16.877Z,93964.81
2022-12-14T21:25:43.375Z,93973.94
2022-12-14T21:28:09.912Z,93974.22
2022-12-14T21:30:36.370Z,93978.22
2022-12-14T21:33:02.812Z,93977.44
2022-12-14T21:35:29.456Z,93977.72
2022-12-14T21:37:55.940Z,93979.59
2022-12-14T21:40:22.421Z,93978.81
2022-12-14T21:42:49.382Z,93976.91
2022-12-14T21:45:16.322Z,93983.09
2022-12-14T21:47:42.871Z,93973.44
2022-12-14T21:50:09.484Z,93972.38
2022-12-14T21:52:36.202Z,93982.56
2022-12-14T21:55:02.666Z,93984.28
2022-12-14T21:57:29.245Z,93984.88
2022-12-14T21:59:55.870Z,93987.06
2022-12-14T22:02:24.552Z,93990.84
2022-12-14T22:04:51.540Z,93994.91
2022-12-14T22:07:20.038Z,93996.78
2022-12-14T22:09:49.752Z,93995.19
2022-12-14T22:12:17.925Z,93998.19
2022-12-14T22:14:44.749Z,94007.03
2022-12-14T22:17:13.334Z,94004.34
2022-12-14T22:19:40.110Z,94013.94
2022-12-14T22:22:06.817Z,94025.19
2022-12-14T22:24:33.336Z,94025.97
2022-12-14T22:26:59.875Z,94029.13
2022-12-14T22:29:26.377Z,94026.44
2022-12-14T22:31:53.018Z,94024.88
2022-12-14T22:34:21.877Z,94017.31
2022-12-14T22:36:49.933Z,94023.78
2022-12-14T22:39:17.169Z,94019.59
2022-12-14T22:41:43.927Z,94012.88
2022-12-14T22:44:12.163Z,94011.78
2022-12-14T22:46:39.298Z,94021.69
2022-12-14T22:49:06.027Z,94021.69
2022-12-14T22:51:32.519Z,94027.56
2022-12-14T22:53:59.341Z,94028.34
2022-12-14T22:56:42.313Z,94028.94
2022-12-14T22:59:12.886Z,94030.31
2022-12-14T23:01:39.707Z,94022.78
2022-12-14T23:04:07.864Z,94028.94
2022-12-14T23:06:34.438Z,94032.03
2022-12-14T23:09:00.980Z,94027.34
2022-12-14T23:11:27.835Z,94015.06
2022-12-14T23:13:54.371Z,94019.31
2022-12-14T23:16:20.933Z,94010.47
2022-12-14T23:18:47.516Z,94021.50
2022-12-14T23:21:14.175Z,94007.03
2022-12-14T23:23:42.798Z,94009.69
2022-12-14T23:26:09.438Z,94008.28
2022-12-14T23:28:35.997Z,94018.22
2022-12-14T23:31:02.908Z,94020.31
2022-12-14T23:33:30.035Z,94025.19
2022-12-14T23:35:56.870Z,94030.25
2022-12-14T23:38:23.518Z,94024.88
2022-12-14T23:40:50.237Z,94026.75
2022-12-14T23:43:17.949Z,94024.06
2022-12-14T23:45:44.577Z,94020.59
2022-12-14T23:48:11.114Z,94023.78
2022-12-14T23:50:37.747Z,94022.50
2022-12-14T23:53:06.256Z,94034.28
2022-12-14T23:55:32.788Z,94028.63
2022-12-14T23:57:59.638Z,94030.53
